North Olmsted, Ohio
Current Conditions -  °F | °C
As of 9:51 PM on Saturday 25 Oct 2014 (Local Time) from KCLE Reporting Station
Clear Clear  
Wind Chill: 59°   Ceiling: Unl
Heat Index: 59°   Visibility: 10mi
Dew Point: 36°   Wind: 17mph
Humidity: 42%   Direction: 280°W
Pressure: 29.81"   Gusts: NA
Location:  41.41°N, 81.92°W
Report Text: KCLE 260151Z 28015KT 10SM CLR 15/02 A2981 RMK AO2 SLP095 T01500022
Loading
Personal Weather Stations






























Interactive Weather Map
Tropical Storm Tracking
New forecast layout! Learn more

10-Day Weather Forecast

Advertisements
Track Severe Weather on mobile